Time;durP1;ratioP1;P1;durP2;ratioP2;P2;SDS_P1;SDS_P2;PMS_P1;PMS_P2;Temp;Humidity;BMP_temperature;BMP_pressure;BME280_temperature;BME280_humidity;BME280_pressure;Samples;Min_cycle;Max_cycle;Signal;HPM_P1;HPM_P2
2021/05/01 00:01:26;;;;;;;30.05;17.60;;;17.40;78.50;;;;;;4994180;28;20034;-69
2021/05/01 00:03:51;;;;;;;25.05;18.20;;;17.40;78.40;;;;;;4994423;28;20030;-69
2021/05/01 00:06:18;;;;;;;29.13;19.02;;;17.40;78.60;;;;;;4994289;28;20474;-69
2021/05/01 00:08:44;;;;;;;32.90;19.55;;;17.40;78.90;;;;;;4994211;28;20022;-69
2021/05/01 00:11:10;;;;;;;36.30;20.67;;;17.30;78.80;;;;;;4994250;28;20544;-69
2021/05/01 00:13:36;;;;;;;32.63;20.52;;;17.40;78.90;;;;;;4994090;28;20027;-69
2021/05/01 00:16:03;;;;;;;31.58;20.95;;;17.30;79.30;;;;;;4994004;28;20023;-69
2021/05/01 00:18:30;;;;;;;37.90;21.63;;;17.40;79.40;;;;;;4994125;28;20100;-69
2021/05/01 00:20:55;;;;;;;33.97;22.45;;;17.40;79.60;;;;;;4994042;28;20019;-68
2021/05/01 00:23:21;;;;;;;29.48;20.20;;;17.40;79.50;;;;;;4993833;28;20475;-69
2021/05/01 00:25:48;;;;;;;32.45;20.60;;;17.40;79.30;;;;;;4994271;28;20081;-69
2021/05/01 00:28:14;;;;;;;30.95;19.73;;;17.40;79.20;;;;;;4993758;28;20475;-69
2021/05/01 00:30:40;;;;;;;29.52;18.85;;;17.40;79.10;;;;;;4994038;28;20023;-69
2021/05/01 00:33:07;;;;;;;31.35;19.80;;;17.40;79.00;;;;;;4993959;28;20034;-69
2021/05/01 00:35:33;;;;;;;28.58;19.13;;;17.30;78.80;;;;;;4993990;28;20105;-69
2021/05/01 00:37:59;;;;;;;30.70;19.42;;;17.40;78.90;;;;;;4993629;28;20022;-69
2021/05/01 00:40:25;;;;;;;29.10;18.02;;;17.30;78.80;;;;;;4993646;28;20368;-69
2021/05/01 00:42:51;;;;;;;31.13;18.98;;;17.40;79.00;;;;;;4993666;28;20074;-69
2021/05/01 00:45:17;;;;;;;25.15;16.35;;;17.30;78.80;;;;;;4994039;28;20033;-69
2021/05/01 00:47:43;;;;;;;26.98;15.77;;;17.30;78.80;;;;;;4993819;28;20463;-69
2021/05/01 00:50:10;;;;;;;23.83;14.52;;;17.30;78.70;;;;;;4993668;28;20046;-69
2021/05/01 00:52:37;;;;;;;25.55;15.18;;;17.30;78.70;;;;;;4993809;28;20030;-69
2021/05/01 00:55:07;;;;;;;22.42;12.50;;;17.20;78.60;;;;;;4993757;28;20022;-68
2021/05/01 00:57:35;;;;;;;21.80;13.57;;;17.20;78.50;;;;;;4992864;28;20034;-69
2021/05/01 01:00:01;;;;;;;22.00;12.80;;;17.20;78.40;;;;;;4990885;28;20113;-69
2021/05/01 01:02:28;;;;;;;22.77;11.93;;;17.20;78.50;;;;;;4993579;28;20181;-69
2021/05/01 01:04:55;;;;;;;22.98;12.20;;;17.20;78.40;;;;;;4996471;28;20018;-69
2021/05/01 01:07:23;;;;;;;22.58;11.75;;;17.20;78.40;;;;;;4996068;28;20145;-69
2021/05/01 01:09:50;;;;;;;28.40;10.30;;;17.10;78.30;;;;;;4997319;28;20062;-69
2021/05/01 01:12:17;;;;;;;19.42;10.35;;;17.10;78.30;;;;;;4997453;28;20065;-69
2021/05/01 01:14:44;;;;;;;20.98;9.15;;;17.10;78.40;;;;;;4996993;28;20105;-69
2021/05/01 01:17:10;;;;;;;16.70;9.05;;;17.10;78.20;;;;;;4997258;28;20027;-69
2021/05/01 01:19:38;;;;;;;18.92;8.85;;;17.10;78.20;;;;;;4997460;28;20446;-69
2021/05/01 01:22:15;;;;;;;21.73;9.40;;;17.10;78.30;;;;;;4997108;28;20509;-69
2021/05/01 01:24:40;;;;;;;18.92;8.75;;;17.00;78.30;;;;;;4997120;28;20073;-69
2021/05/01 01:27:07;;;;;;;21.58;9.18;;;17.00;78.20;;;;;;4997189;28;20030;-69
2021/05/01 01:29:37;;;;;;;20.95;8.77;;;17.00;78.20;;;;;;4996923;28;20026;-69
2021/05/01 01:32:03;;;;;;;18.52;9.30;;;17.00;78.20;;;;;;4997078;28;20482;-69
2021/05/01 01:34:29;;;;;;;22.00;9.45;;;17.00;78.20;;;;;;4997072;28;20513;-69
2021/05/01 01:36:54;;;;;;;17.13;8.85;;;17.00;78.30;;;;;;4996896;28;20026;-69
2021/05/01 01:39:21;;;;;;;20.40;8.02;;;17.00;78.20;;;;;;4996935;28;20027;-69
2021/05/01 01:41:47;;;;;;;13.38;7.28;;;16.90;78.20;;;;;;4995710;28;20034;-69
2021/05/01 01:44:12;;;;;;;21.42;7.95;;;16.90;78.20;;;;;;4996719;28;20038;-69
2021/05/01 01:46:38;;;;;;;20.35;8.27;;;16.90;78.40;;;;;;4996978;28;20030;-69
2021/05/01 01:49:04;;;;;;;14.20;7.50;;;16.80;78.30;;;;;;4997004;28;20056;-69
2021/05/01 01:51:30;;;;;;;15.15;7.05;;;16.80;78.30;;;;;;4996534;28;20505;-69
2021/05/01 01:53:56;;;;;;;18.52;7.20;;;16.90;78.30;;;;;;4996885;28;20015;-69
2021/05/01 01:56:22;;;;;;;16.38;7.00;;;16.80;78.30;;;;;;4996881;28;20494;-69
2021/05/01 01:58:47;;;;;;;17.83;7.35;;;16.80;78.40;;;;;;4996370;28;20470;-69
2021/05/01 02:01:13;;;;;;;14.60;6.85;;;16.80;78.30;;;;;;4996503;28;20061;-69
2021/05/01 02:03:39;;;;;;;15.77;6.80;;;16.80;78.10;;;;;;4996919;28;20037;-69
2021/05/01 02:06:05;;;;;;;14.77;6.60;;;16.80;78.00;;;;;;4996703;28;20018;-69
2021/05/01 02:08:31;;;;;;;14.32;6.75;;;16.80;78.10;;;;;;4996223;28;20399;-69
2021/05/01 02:10:56;;;;;;;16.67;6.70;;;16.70;78.20;;;;;;4996682;28;20025;-69
2021/05/01 02:13:22;;;;;;;16.83;6.47;;;16.70;78.20;;;;;;4995366;28;20023;-69
2021/05/01 02:15:48;;;;;;;20.50;6.82;;;16.70;78.20;;;;;;4996443;28;20105;-69
2021/05/01 02:18:13;;;;;;;19.40;6.93;;;16.70;78.20;;;;;;4996392;28;20109;-69
2021/05/01 02:20:39;;;;;;;14.85;6.38;;;16.60;78.30;;;;;;4996455;28;20434;-69
2021/05/01 02:23:06;;;;;;;18.25;6.60;;;16.60;78.20;;;;;;4996295;28;20038;-69
2021/05/01 02:25:32;;;;;;;18.95;7.07;;;16.60;78.30;;;;;;4996434;28;20057;-69
2021/05/01 02:27:59;;;;;;;16.10;6.20;;;16.50;78.30;;;;;;4996450;28;20037;-69
2021/05/01 02:30:27;;;;;;;13.15;6.70;;;16.50;78.40;;;;;;4996364;28;20026;-69
2021/05/01 02:32:54;;;;;;;16.70;6.80;;;16.50;78.50;;;;;;4996124;28;20022;-69
2021/05/01 02:35:22;;;;;;;16.23;5.45;;;16.50;78.70;;;;;;4996136;28;20470;-69
2021/05/01 02:37:49;;;;;;;13.43;5.90;;;16.40;79.30;;;;;;4996300;28;20031;-69
2021/05/01 02:40:17;;;;;;;14.18;6.05;;;16.40;78.80;;;;;;4996258;28;20030;-69
2021/05/01 02:42:43;;;;;;;15.18;6.57;;;16.40;78.80;;;;;;4996328;28;20164;-69
2021/05/01 02:45:13;;;;;;;15.85;6.45;;;16.40;78.90;;;;;;4996389;28;20065;-69
2021/05/01 02:47:38;;;;;;;13.88;6.32;;;16.40;78.90;;;;;;4995735;28;20117;-69
2021/05/01 02:50:06;;;;;;;12.90;6.97;;;16.40;78.90;;;;;;4995795;28;20117;-69
2021/05/01 02:52:32;;;;;;;14.45;6.95;;;16.40;78.90;;;;;;4995651;28;20504;-69
2021/05/01 02:54:58;;;;;;;18.58;8.15;;;16.40;78.90;;;;;;4995604;28;20097;-69
2021/05/01 02:57:24;;;;;;;17.92;7.43;;;16.30;79.00;;;;;;4994562;28;20108;-69
2021/05/01 02:59:49;;;;;;;15.75;7.28;;;16.40;79.20;;;;;;4995471;28;20033;-69
2021/05/01 03:02:15;;;;;;;21.65;7.18;;;16.30;79.00;;;;;;4995312;28;20112;-69
2021/05/01 03:04:41;;;;;;;16.38;7.25;;;16.30;79.00;;;;;;4995537;28;20097;-69
2021/05/01 03:07:06;;;;;;;17.02;7.00;;;16.30;79.00;;;;;;4995368;28;20036;-69
2021/05/01 03:09:32;;;;;;;14.70;6.82;;;16.30;78.90;;;;;;4995423;28;20034;-69
2021/05/01 03:11:58;;;;;;;12.10;6.32;;;16.30;78.80;;;;;;4994048;28;20085;-69
2021/05/01 03:14:26;;;;;;;16.48;6.45;;;16.30;78.80;;;;;;4995310;28;20022;-69
2021/05/01 03:16:53;;;;;;;12.50;5.88;;;16.20;78.60;;;;;;4995278;28;20076;-69
2021/05/01 03:19:19;;;;;;;18.35;6.18;;;16.20;78.50;;;;;;4995456;28;20018;-69
2021/05/01 03:21:45;;;;;;;12.13;6.00;;;16.20;78.40;;;;;;4995154;28;20030;-69
2021/05/01 03:24:12;;;;;;;15.10;6.38;;;16.20;78.40;;;;;;4994751;28;20093;-69
2021/05/01 03:26:38;;;;;;;15.45;6.45;;;16.20;78.30;;;;;;4995162;28;20438;-69
2021/05/01 03:29:05;;;;;;;13.00;6.00;;;16.10;78.00;;;;;;4994911;28;20057;-69
2021/05/01 03:31:31;;;;;;;15.38;5.82;;;16.10;78.10;;;;;;4994918;28;20030;-69
2021/05/01 03:33:56;;;;;;;11.70;5.75;;;16.10;78.00;;;;;;4994941;28;20105;-69
2021/05/01 03:36:22;;;;;;;12.50;4.65;;;16.00;78.00;;;;;;4994962;28;20102;-69
2021/05/01 03:38:48;;;;;;;9.18;5.07;;;16.00;78.10;;;;;;4994990;28;20038;-69
2021/05/01 03:41:14;;;;;;;12.68;5.88;;;16.00;78.20;;;;;;4994988;28;20395;-69
2021/05/01 03:43:39;;;;;;;11.07;4.90;;;16.00;78.10;;;;;;4994824;28;20039;-69
2021/05/01 03:46:05;;;;;;;15.63;5.32;;;16.00;78.10;;;;;;4994817;28;20058;-69
2021/05/01 03:48:31;;;;;;;10.57;5.40;;;16.00;78.20;;;;;;4994642;28;20037;-69
2021/05/01 03:50:57;;;;;;;9.05;4.97;;;15.90;78.20;;;;;;4994272;28;20058;-69
2021/05/01 03:53:22;;;;;;;11.88;5.28;;;15.90;78.10;;;;;;4994393;28;20019;-69
2021/05/01 03:55:49;;;;;;;13.43;5.10;;;15.90;78.20;;;;;;4994264;28;20506;-69
2021/05/01 03:58:15;;;;;;;15.27;5.43;;;15.90;78.30;;;;;;4994280;28;20033;-69
2021/05/01 04:00:40;;;;;;;12.65;4.45;;;15.90;78.20;;;;;;4994532;28;20023;-69
2021/05/01 04:03:06;;;;;;;11.35;4.65;;;15.80;78.30;;;;;;4994335;28;20045;-69
2021/05/01 04:05:33;;;;;;;11.50;4.60;;;15.90;78.40;;;;;;4994184;28;20467;-69
2021/05/01 04:07:58;;;;;;;15.15;4.97;;;15.80;78.30;;;;;;4994273;28;20038;-69
2021/05/01 04:10:24;;;;;;;12.05;5.75;;;15.80;78.30;;;;;;4994439;28;20029;-69
2021/05/01 04:12:50;;;;;;;13.60;5.40;;;15.80;78.30;;;;;;4994212;28;20031;-69
2021/05/01 04:15:16;;;;;;;13.98;5.18;;;15.70;78.20;;;;;;4994262;28;20030;-69
2021/05/01 04:17:43;;;;;;;17.60;5.63;;;15.70;78.30;;;;;;4994186;28;20030;-69
2021/05/01 04:20:10;;;;;;;11.02;5.47;;;15.70;78.50;;;;;;4994124;28;20034;-69
2021/05/01 04:22:35;;;;;;;17.83;6.28;;;15.70;78.50;;;;;;4994114;28;20039;-69
2021/05/01 04:25:02;;;;;;;15.32;6.00;;;15.60;78.70;;;;;;4994065;28;20018;-69
2021/05/01 04:27:29;;;;;;;11.85;5.20;;;15.60;78.90;;;;;;4993895;28;20427;-69
2021/05/01 04:29:55;;;;;;;11.40;5.35;;;15.60;78.80;;;;;;4994048;28;20096;-69
2021/05/01 04:32:21;;;;;;;11.45;5.47;;;15.50;78.70;;;;;;4993776;28;20038;-68
2021/05/01 04:34:47;;;;;;;12.85;5.68;;;15.50;78.80;;;;;;4993568;28;20023;-69
2021/05/01 04:37:12;;;;;;;12.50;5.82;;;15.60;78.80;;;;;;4993132;28;20383;-68
2021/05/01 04:39:38;;;;;;;11.68;5.93;;;15.60;79.00;;;;;;4993670;28;20018;-68
2021/05/01 04:42:06;;;;;;;11.52;6.13;;;15.50;79.00;;;;;;4993702;28;20509;-68
2021/05/01 04:44:33;;;;;;;11.43;5.90;;;15.50;79.10;;;;;;4993829;28;20085;-68
2021/05/01 04:46:58;;;;;;;10.10;5.30;;;15.50;80.00;;;;;;4993974;28;20518;-68
2021/05/01 04:49:24;;;;;;;15.88;6.22;;;15.50;79.50;;;;;;4993347;28;20150;-68
2021/05/01 04:51:50;;;;;;;15.88;6.43;;;15.60;79.70;;;;;;4993682;28;20069;-68
2021/05/01 04:54:16;;;;;;;18.50;6.45;;;15.60;80.10;;;;;;4993946;28;20081;-68
2021/05/01 04:56:42;;;;;;;11.90;6.07;;;15.60;80.20;;;;;;4993529;28;20085;-68
2021/05/01 04:59:07;;;;;;;14.20;5.80;;;15.60;80.40;;;;;;4993690;28;20022;-68
2021/05/01 05:01:37;;;;;;;12.77;6.13;;;15.60;80.50;;;;;;4993743;28;20026;-68
2021/05/01 05:04:04;;;;;;;11.20;5.75;;;15.70;80.80;;;;;;4994050;28;20388;-68
2021/05/01 05:06:30;;;;;;;13.13;6.03;;;15.70;81.20;;;;;;4993768;28;20060;-68
2021/05/01 05:08:55;;;;;;;14.35;5.75;;;15.70;81.30;;;;;;4993464;28;20027;-69
2021/05/01 05:11:21;;;;;;;12.25;5.20;;;15.70;81.20;;;;;;4993657;28;20030;-68
2021/05/01 05:13:47;;;;;;;18.40;5.18;;;15.70;81.10;;;;;;4993563;28;20576;-68
2021/05/01 05:16:13;;;;;;;8.80;5.20;;;15.80;81.20;;;;;;4993560;28;20027;-68
2021/05/01 05:18:39;;;;;;;7.35;4.53;;;15.80;81.20;;;;;;4993671;28;20030;-68
2021/05/01 05:21:05;;;;;;;14.65;5.00;;;15.80;81.00;;;;;;4993730;28;20026;-69
2021/05/01 05:23:30;;;;;;;11.85;5.00;;;15.90;80.90;;;;;;4993592;28;20042;-68
2021/05/01 05:25:56;;;;;;;12.10;4.97;;;15.90;80.90;;;;;;4993447;28;20049;-69
2021/05/01 05:28:22;;;;;;;13.88;5.50;;;15.80;80.80;;;;;;4992323;28;20034;-69
2021/05/01 05:30:48;;;;;;;12.55;4.50;;;15.90;81.00;;;;;;4993508;28;20030;-68
2021/05/01 05:33:14;;;;;;;12.20;5.15;;;15.90;80.90;;;;;;4993321;28;20022;-68
2021/05/01 05:35:40;;;;;;;9.88;4.63;;;15.90;80.90;;;;;;4993400;28;20023;-68
2021/05/01 05:38:05;;;;;;;9.80;4.45;;;16.00;80.80;;;;;;4993013;28;20382;-68
2021/05/01 05:40:32;;;;;;;13.57;4.70;;;16.00;80.90;;;;;;4993092;28;20030;-69
2021/05/01 05:42:58;;;;;;;11.65;4.90;;;16.00;81.00;;;;;;4993025;28;20045;-68
2021/05/01 05:45:26;;;;;;;8.63;4.50;;;16.00;80.90;;;;;;4992976;28;20023;-68
2021/05/01 05:47:53;;;;;;;9.98;4.20;;;16.10;81.00;;;;;;4994165;28;20116;-68
2021/05/01 05:50:19;;;;;;;8.70;3.97;;;16.10;80.80;;;;;;4996493;28;20447;-68
2021/05/01 05:52:45;;;;;;;8.88;4.20;;;16.10;80.70;;;;;;4996595;28;20096;-69
2021/05/01 05:55:12;;;;;;;13.25;4.47;;;16.20;80.90;;;;;;4996479;28;20053;-68
2021/05/01 05:57:38;;;;;;;9.50;4.38;;;16.20;80.90;;;;;;4996633;28;20022;-68
2021/05/01 06:00:06;;;;;;;10.02;4.28;;;16.20;80.90;;;;;;4996389;28;20061;-68
2021/05/01 06:02:33;;;;;;;12.52;4.60;;;16.20;81.00;;;;;;4996676;28;20077;-68
2021/05/01 06:05:11;;;;;;;12.02;5.00;;;16.30;81.00;;;;;;4995285;28;20109;-68
2021/05/01 06:07:41;;;;;;;13.52;4.07;;;16.30;80.90;;;;;;4996403;28;20033;-69
2021/05/01 06:10:08;;;;;;;12.73;5.30;;;16.30;80.80;;;;;;4996643;28;20030;-69
2021/05/01 06:12:35;;;;;;;11.55;4.90;;;16.40;80.60;;;;;;4996163;28;20478;-68
2021/05/01 06:15:07;;;;;;;11.32;4.78;;;16.40;80.40;;;;;;4994870;28;20487;-68
2021/05/01 06:17:35;;;;;;;11.57;4.10;;;16.40;80.40;;;;;;4996098;28;20033;-68
2021/05/01 06:20:02;;;;;;;10.02;4.95;;;16.40;80.40;;;;;;4995938;28;20026;-68
2021/05/01 06:22:28;;;;;;;12.38;5.15;;;16.50;80.30;;;;;;4995986;28;20136;-68
2021/05/01 06:24:54;;;;;;;12.77;5.50;;;16.50;80.40;;;;;;4994453;28;20022;-68
2021/05/01 06:27:21;;;;;;;12.25;5.20;;;16.60;80.40;;;;;;4995672;28;20033;-68
2021/05/01 06:29:48;;;;;;;8.65;4.95;;;16.60;80.30;;;;;;4994338;28;20027;-69
2021/05/01 06:32:16;;;;;;;11.05;5.55;;;16.60;80.20;;;;;;4995533;28;20036;-68
2021/05/01 06:34:54;;;;;;;14.52;5.50;;;16.60;80.00;;;;;;4995115;28;20097;-68
2021/05/01 06:37:22;;;;;;;13.05;5.40;;;16.70;79.80;;;;;;4995531;28;20030;-68
2021/05/01 06:39:49;;;;;;;12.75;5.15;;;16.70;79.70;;;;;;4994577;28;20057;-68
2021/05/01 06:42:19;;;;;;;10.52;5.57;;;16.70;79.60;;;;;;4995563;28;20050;-68
2021/05/01 06:44:58;;;;;;;13.57;5.05;;;16.80;79.60;;;;;;4995492;28;20026;-68
2021/05/01 06:47:26;;;;;;;11.18;5.15;;;16.80;79.10;;;;;;4995570;28;20041;-68
2021/05/01 06:50:11;;;;;;;16.77;5.25;;;16.80;78.90;;;;;;4995551;28;20062;-68
2021/05/01 06:52:42;;;;;;;11.80;4.43;;;16.90;78.90;;;;;;4995660;28;20045;-68
2021/05/01 06:55:12;;;;;;;7.80;4.53;;;16.90;78.70;;;;;;4995540;28;20448;-68
2021/05/01 06:57:42;;;;;;;14.07;4.68;;;17.00;78.50;;;;;;4995370;28;20037;-68
2021/05/01 07:00:08;;;;;;;12.65;4.50;;;17.00;77.90;;;;;;4994515;28;20105;-69
2021/05/01 07:02:40;;;;;;;8.25;4.18;;;17.00;77.70;;;;;;4994868;28;20062;-68
2021/05/01 07:05:10;;;;;;;10.60;4.32;;;17.10;78.10;;;;;;4994997;28;20050;-68
2021/05/01 07:07:36;;;;;;;9.25;3.92;;;17.20;78.20;;;;;;4995135;28;20014;-68
2021/05/01 07:10:06;;;;;;;14.13;4.00;;;17.20;77.60;;;;;;4995023;28;20049;-68
2021/05/01 07:12:32;;;;;;;6.30;3.58;;;17.20;77.20;;;;;;4995022;28;20034;-68
2021/05/01 07:15:12;;;;;;;8.23;3.00;;;17.30;76.60;;;;;;4995066;28;20029;-68
2021/05/01 07:17:39;;;;;;;7.93;2.92;;;17.30;76.70;;;;;;4993606;28;20031;-68
2021/05/01 07:20:11;;;;;;;10.90;3.60;;;17.40;76.50;;;;;;4993337;28;20096;-68
2021/05/01 07:22:37;;;;;;;8.23;3.33;;;17.50;76.30;;;;;;4994641;28;20034;-67
2021/05/01 07:25:04;;;;;;;7.70;3.38;;;17.50;76.10;;;;;;4994910;28;20022;-68
2021/05/01 07:27:41;;;;;;;10.43;3.20;;;17.60;75.70;;;;;;4989708;28;20043;-68
2021/05/01 07:30:08;;;;;;;9.73;3.20;;;17.70;75.30;;;;;;4994968;28;20096;-69
2021/05/01 07:32:39;;;;;;;9.95;3.65;;;17.70;75.20;;;;;;5009832;28;20030;-69
2021/05/01 07:35:07;;;;;;;14.25;4.10;;;17.80;75.10;;;;;;5009299;28;20054;-69
2021/05/01 07:37:37;;;;;;;12.15;5.45;;;17.80;75.00;;;;;;4994676;28;20018;-68
2021/05/01 07:40:11;;;;;;;9.88;3.80;;;17.90;74.90;;;;;;4994566;28;20440;-68
2021/05/01 07:42:48;;;;;;;14.57;3.60;;;17.90;74.90;;;;;;4993925;28;20045;-69
2021/05/01 07:45:18;;;;;;;10.68;3.40;;;18.00;74.80;;;;;;4994016;28;20109;-68
2021/05/01 07:47:44;;;;;;;8.52;4.20;;;18.10;74.70;;;;;;4994080;28;20018;-69
2021/05/01 07:50:10;;;;;;;9.63;3.60;;;18.10;74.90;;;;;;4993843;28;20043;-68
2021/05/01 07:52:37;;;;;;;10.18;3.55;;;18.10;74.90;;;;;;4994019;28;20383;-68
2021/05/01 07:55:03;;;;;;;7.65;3.20;;;18.20;75.00;;;;;;4994218;28;20026;-68
2021/05/01 07:57:29;;;;;;;8.02;2.35;;;18.30;74.90;;;;;;4994144;28;20112;-67
2021/05/01 07:59:56;;;;;;;8.98;3.15;;;18.30;74.80;;;;;;4993602;28;20071;-67
2021/05/01 08:02:22;;;;;;;5.18;2.13;;;18.40;74.60;;;;;;4993667;28;20522;-68
2021/05/01 08:04:47;;;;;;;7.22;2.47;;;18.50;74.10;;;;;;4993911;28;20036;-68
2021/05/01 08:07:13;;;;;;;10.65;2.55;;;18.50;73.50;;;;;;4993724;28;20049;-68
2021/05/01 08:09:39;;;;;;;4.85;1.90;;;18.60;73.20;;;;;;4993891;28;20387;-68
2021/05/01 08:12:04;;;;;;;6.80;2.17;;;18.60;72.90;;;;;;4993783;28;20030;-67
2021/05/01 08:14:30;;;;;;;7.68;2.38;;;18.70;72.80;;;;;;4993635;28;20173;-69
2021/05/01 08:16:56;;;;;;;4.68;1.75;;;18.70;72.60;;;;;;4993700;28;20026;-69
2021/05/01 08:19:22;;;;;;;5.72;1.88;;;18.70;72.20;;;;;;4994091;28;20030;-69
2021/05/01 08:21:47;;;;;;;7.68;2.22;;;18.80;71.90;;;;;;4993703;28;20040;-69
2021/05/01 08:24:13;;;;;;;11.68;2.40;;;18.90;72.10;;;;;;4993221;28;20022;-69
2021/05/01 08:26:39;;;;;;;7.60;2.00;;;18.90;71.70;;;;;;4993071;28;20435;-69
2021/05/01 08:29:05;;;;;;;7.38;2.00;;;18.90;71.80;;;;;;4992954;28;20081;-68
2021/05/01 08:31:30;;;;;;;7.80;2.40;;;19.00;71.60;;;;;;4993281;28;20364;-68
2021/05/01 08:33:56;;;;;;;7.72;2.28;;;19.00;71.40;;;;;;4993651;28;20030;-69
2021/05/01 08:36:22;;;;;;;8.38;2.47;;;19.10;71.40;;;;;;4993743;28;20030;-70
2021/05/01 08:38:48;;;;;;;4.43;1.85;;;19.20;71.50;;;;;;4993463;28;20027;-69
2021/05/01 08:41:14;;;;;;;5.40;2.10;;;19.20;71.00;;;;;;4992331;28;20125;-73
2021/05/01 08:43:39;;;;;;;8.30;2.10;;;19.30;70.40;;;;;;4993381;28;20061;-73
2021/05/01 08:46:14;;;;;;;3.88;1.77;;;19.30;70.30;;;;;;4992969;28;20057;-73
2021/05/01 08:48:44;;;;;;;9.63;2.13;;;19.40;70.30;;;;;;4992973;28;20030;-72
2021/05/01 08:51:11;;;;;;;9.30;2.55;;;19.50;69.50;;;;;;4993844;28;20050;-71
2021/05/01 08:53:37;;;;;;;4.72;2.05;;;19.50;68.80;;;;;;4993421;28;20066;-71
2021/05/01 08:56:03;;;;;;;10.10;2.67;;;19.50;68.90;;;;;;4993303;28;20034;-70
2021/05/01 08:58:29;;;;;;;5.63;1.63;;;19.60;68.70;;;;;;4990199;28;20126;-71
2021/05/01 09:00:55;;;;;;;6.93;1.48;;;19.60;68.10;;;;;;4992075;28;20093;-71
2021/05/01 09:03:22;;;;;;;8.68;2.20;;;19.70;68.10;;;;;;4993678;28;20405;-72
2021/05/01 09:05:50;;;;;;;7.50;2.25;;;19.70;68.00;;;;;;4992544;28;20065;-72
2021/05/01 09:08:18;;;;;;;6.50;1.50;;;19.80;67.80;;;;;;4993777;28;20065;-71
2021/05/01 09:10:47;;;;;;;5.85;1.63;;;19.80;67.50;;;;;;4992385;28;20050;-71
2021/05/01 09:13:26;;;;;;;5.88;1.88;;;19.90;67.60;;;;;;4993655;28;20026;-71
2021/05/01 09:15:59;;;;;;;4.35;2.10;;;20.00;68.00;;;;;;4993936;28;20031;-71
2021/05/01 09:18:26;;;;;;;7.00;2.05;;;20.00;67.70;;;;;;4993533;28;20026;-71
2021/05/01 09:20:52;;;;;;;3.83;1.90;;;20.10;67.60;;;;;;4993518;28;20030;-71
2021/05/01 09:23:18;;;;;;;5.13;1.95;;;20.20;66.90;;;;;;4995536;28;20050;-71
2021/05/01 09:25:57;;;;;;;5.45;2.00;;;20.20;66.60;;;;;;4997529;28;20037;-70
2021/05/01 09:28:24;;;;;;;8.75;2.47;;;20.30;66.30;;;;;;4997461;28;20064;-71
2021/05/01 09:31:07;;;;;;;4.43;1.80;;;20.30;66.00;;;;;;4997540;28;20031;-71
2021/05/01 09:33:41;;;;;;;9.38;1.90;;;20.40;66.90;;;;;;4997109;28;20505;-72
2021/05/01 09:36:13;;;;;;;7.05;2.25;;;20.40;66.50;;;;;;4997055;28;20019;-71
2021/05/01 09:38:42;;;;;;;7.22;2.10;;;20.50;66.10;;;;;;4997273;28;20065;-71
2021/05/01 09:41:17;;;;;;;6.40;2.58;;;20.50;65.30;;;;;;4997025;28;20034;-71
2021/05/01 09:43:58;;;;;;;9.18;1.90;;;20.50;65.20;;;;;;4997228;28;20398;-70
2021/05/01 09:46:25;;;;;;;8.13;1.95;;;20.60;64.00;;;;;;4997121;28;20030;-71
2021/05/01 09:49:09;;;;;;;8.23;1.90;;;20.60;64.40;;;;;;4997030;28;20029;-71
2021/05/01 09:51:48;;;;;;;6.43;1.90;;;20.70;65.00;;;;;;4996918;28;20384;-71
2021/05/01 09:54:17;;;;;;;7.43;2.38;;;20.80;65.50;;;;;;4996927;28;20395;-71
2021/05/01 09:56:45;;;;;;;7.15;2.00;;;20.90;66.40;;;;;;4996782;28;20451;-72
2021/05/01 09:59:11;;;;;;;6.10;2.28;;;21.00;66.00;;;;;;4996912;28;20030;-71
2021/05/01 10:01:37;;;;;;;5.35;1.92;;;21.00;64.10;;;;;;4996715;28;20144;-71
2021/05/01 10:04:32;;;;;;;7.22;2.10;;;21.10;62.70;;;;;;4997090;28;20110;-71
2021/05/01 10:07:06;;;;;;;5.90;2.25;;;21.20;64.60;;;;;;4992191;28;20042;-71
2021/05/01 10:09:37;;;;;;;8.25;2.15;;;21.30;63.80;;;;;;4996894;28;20113;-71
2021/05/01 10:12:07;;;;;;;6.22;2.45;;;21.40;64.00;;;;;;4996764;28;20022;-71
2021/05/01 10:14:41;;;;;;;5.03;2.05;;;21.40;64.80;;;;;;4996387;28;20030;-71
2021/05/01 10:17:10;;;;;;;6.85;1.88;;;21.40;64.60;;;;;;4996569;28;20057;-71
2021/05/01 10:20:06;;;;;;;6.45;1.67;;;21.50;63.70;;;;;;4996681;28;20022;-71
2021/05/01 10:22:41;;;;;;;6.07;1.90;;;21.50;62.70;;;;;;4995816;28;20129;-72
2021/05/01 10:25:10;;;;;;;8.82;2.10;;;21.60;62.70;;;;;;4996327;28;20172;-70
2021/05/01 10:27:47;;;;;;;8.77;2.10;;;21.60;62.40;;;;;;4996194;28;20077;-71
2021/05/01 10:30:38;;;;;;;8.07;2.30;;;21.70;61.60;;;;;;4996389;28;20019;-71
2021/05/01 10:33:17;;;;;;;6.13;2.08;;;21.80;62.30;;;;;;4996440;28;20524;-71
2021/05/01 10:36:08;;;;;;;5.40;1.83;;;21.80;61.80;;;;;;4995348;28;20122;-72
2021/05/01 10:38:34;;;;;;;6.18;2.10;;;21.90;59.90;;;;;;4994927;28;20026;-71
2021/05/01 10:41:03;;;;;;;4.68;1.60;;;21.80;60.20;;;;;;4996333;28;20034;-71
2021/05/01 10:43:31;;;;;;;9.02;1.67;;;21.90;61.30;;;;;;4995898;28;20088;-71
2021/05/01 10:46:10;;;;;;;8.02;2.67;;;21.90;60.90;;;;;;4995999;28;20015;-72
2021/05/01 10:48:45;;;;;;;6.15;1.85;;;22.00;60.90;;;;;;4995895;28;20072;-72
2021/05/01 10:51:12;;;;;;;9.35;2.75;;;22.00;60.90;;;;;;4995899;28;20439;-72
2021/05/01 10:53:39;;;;;;;5.18;1.90;;;22.00;59.00;;;;;;4995894;28;20027;-71
2021/05/01 10:56:07;;;;;;;5.30;2.00;;;22.00;58.70;;;;;;4996135;28;20054;-71
2021/05/01 10:58:45;;;;;;;7.55;1.77;;;22.00;59.00;;;;;;5010958;28;20022;-72
2021/05/01 11:01:29;;;;;;;8.88;2.30;;;22.10;59.50;;;;;;4996024;28;20026;-71
2021/05/01 11:04:00;;;;;;;8.00;2.13;;;22.20;60.50;;;;;;4996010;28;20034;-71
2021/05/01 11:06:28;;;;;;;4.70;1.83;;;22.30;59.70;;;;;;4996395;28;20441;-71
2021/05/01 11:09:07;;;;;;;3.88;1.52;;;22.50;59.90;;;;;;4996124;28;20030;-72
2021/05/01 11:11:37;;;;;;;6.57;1.92;;;22.60;57.20;;;;;;4995676;28;20023;-71
2021/05/01 11:14:27;;;;;;;7.95;2.08;;;22.70;58.80;;;;;;4995708;28;20494;-71
2021/05/01 11:17:13;;;;;;;4.95;1.92;;;22.90;60.70;;;;;;4995337;28;20058;-71
2021/05/01 11:19:46;;;;;;;9.60;1.95;;;22.90;57.90;;;;;;4995589;28;20025;-71
2021/05/01 11:22:20;;;;;;;10.50;2.25;;;23.00;58.70;;;;;;4995397;28;20034;-71
2021/05/01 11:24:46;;;;;;;12.10;2.28;;;23.10;58.80;;;;;;4995609;28;20395;-71
2021/05/01 11:27:12;;;;;;;10.85;2.45;;;23.20;57.50;;;;;;4995088;28;20034;-71
2021/05/01 11:29:39;;;;;;;7.53;2.13;;;23.20;57.20;;;;;;4995321;28;20034;-71
2021/05/01 11:32:05;;;;;;;13.00;2.47;;;23.20;58.10;;;;;;4994939;28;20022;-71
2021/05/01 11:34:31;;;;;;;9.68;2.47;;;23.30;58.20;;;;;;4994940;28;20033;-71
2021/05/01 11:37:03;;;;;;;12.00;2.42;;;23.20;57.40;;;;;;4994977;28;20022;-71
2021/05/01 11:39:29;;;;;;;10.95;2.50;;;23.20;58.10;;;;;;4993697;28;20085;-72
2021/05/01 11:41:57;;;;;;;9.20;2.30;;;23.30;58.30;;;;;;4994958;28;20037;-71
2021/05/01 11:44:25;;;;;;;11.45;2.10;;;23.40;58.00;;;;;;4994915;28;20505;-70
2021/05/01 11:46:57;;;;;;;7.47;1.90;;;23.50;56.20;;;;;;4994486;28;20022;-72
2021/05/01 11:49:29;;;;;;;6.40;2.25;;;23.50;56.60;;;;;;4994497;28;20495;-69
2021/05/01 11:52:10;;;;;;;8.07;2.25;;;23.50;56.50;;;;;;4994899;28;20030;-70
2021/05/01 11:54:48;;;;;;;5.82;2.00;;;23.60;56.10;;;;;;4994841;28;20026;-69
2021/05/01 11:57:32;;;;;;;9.10;2.55;;;23.70;56.60;;;;;;4994290;28;20027;-70
2021/05/01 12:00:00;;;;;;;8.05;2.60;;;23.80;54.00;;;;;;4994751;28;20034;-70
2021/05/01 12:02:36;;;;;;;9.23;2.15;;;23.80;55.80;;;;;;4994674;28;20077;-71
2021/05/01 12:05:02;;;;;;;13.60;2.22;;;23.90;56.30;;;;;;4993289;28;20034;-72
2021/05/01 12:07:48;;;;;;;13.90;2.53;;;23.90;56.90;;;;;;4994269;28;20034;-72
2021/05/01 12:10:17;;;;;;;10.88;2.42;;;24.00;56.00;;;;;;4993796;28;20043;-72
2021/05/01 12:13:06;;;;;;;10.82;2.53;;;24.00;55.70;;;;;;4993925;28;20034;-72
2021/05/01 12:15:34;;;;;;;11.98;2.60;;;24.00;53.70;;;;;;4991230;28;20049;-73
2021/05/01 12:18:02;;;;;;;12.93;2.83;;;24.10;55.50;;;;;;4991447;28;20030;-72
2021/05/01 12:20:29;;;;;;;12.18;2.78;;;24.00;54.80;;;;;;4992760;28;20026;-72
2021/05/01 12:23:06;;;;;;;12.82;2.78;;;24.10;54.80;;;;;;4994096;28;20435;-72
2021/05/01 12:25:49;;;;;;;13.52;2.55;;;24.10;55.30;;;;;;4994272;28;20023;-71
2021/05/01 12:28:33;;;;;;;17.30;2.92;;;24.20;55.50;;;;;;4993740;28;20037;-72
2021/05/01 12:30:59;;;;;;;13.80;2.47;;;24.30;55.40;;;;;;4994036;28;20050;-71
2021/05/01 12:33:29;;;;;;;13.27;2.78;;;24.30;53.80;;;;;;4994022;28;20026;-72
2021/05/01 12:36:03;;;;;;;17.52;3.10;;;24.30;53.60;;;;;;4993804;28;20032;-71
2021/05/01 12:38:31;;;;;;;16.88;3.00;;;24.30;53.70;;;;;;4994079;28;20027;-72
2021/05/01 12:41:06;;;;;;;21.42;2.90;;;24.20;53.80;;;;;;4994032;28;20057;-72
2021/05/01 12:43:32;;;;;;;23.67;2.97;;;24.10;55.10;;;;;;4993760;28;20038;-72
2021/05/01 12:46:01;;;;;;;46.70;4.28;;;24.00;55.40;;;;;;4993979;28;20085;-72
2021/05/01 12:48:50;;;;;;;20.85;3.35;;;24.00;56.20;;;;;;4993970;28;20501;-72